sensor_id;sensor_type;location;lat;lon;timestamp;pressure;altitude;pressure_sealevel;temperature;humidity
34893;BME280;21106;52.240;20.902;2023-07-31T00:03:05;99472.79;;;21.21;58.98
34893;BME280;21106;52.240;20.902;2023-07-31T00:10:16;99486.46;;;21.13;59.02
34893;BME280;21106;52.240;20.902;2023-07-31T00:16:51;99485.76;;;21.04;58.98
34893;BME280;21106;52.240;20.902;2023-07-31T00:21:59;99496.59;;;20.98;59.00
34893;BME280;21106;52.240;20.902;2023-07-31T00:27:09;99493.27;;;20.92;59.17
34893;BME280;21106;52.240;20.902;2023-07-31T00:32:37;99490.35;;;20.88;59.16
34893;BME280;21106;52.240;20.902;2023-07-31T00:37:44;99487.29;;;20.84;59.41
34893;BME280;21106;52.240;20.902;2023-07-31T00:42:52;99483.00;;;20.79;59.33
34893;BME280;21106;52.240;20.902;2023-07-31T00:48:02;99477.52;;;20.75;59.66
34893;BME280;21106;52.240;20.902;2023-07-31T00:53:13;99475.09;;;20.70;59.75
34893;BME280;21106;52.240;20.902;2023-07-31T00:58:20;99472.42;;;20.66;59.80
34893;BME280;21106;52.240;20.902;2023-07-31T01:03:29;99473.81;;;20.58;60.12
34893;BME280;21106;52.240;20.902;2023-07-31T01:08:54;99474.37;;;20.51;60.17
34893;BME280;21106;52.240;20.902;2023-07-31T01:14:26;99480.64;;;20.44;60.40
34893;BME280;21106;52.240;20.902;2023-07-31T01:19:57;99484.29;;;20.36;60.46
34893;BME280;21106;52.240;20.902;2023-07-31T01:26:17;99482.88;;;20.30;60.78
34893;BME280;21106;52.240;20.902;2023-07-31T01:31:49;99485.23;;;20.25;60.83
34893;BME280;21106;52.240;20.902;2023-07-31T01:36:57;99489.14;;;20.23;60.89
34893;BME280;21106;52.240;20.902;2023-07-31T01:42:11;99484.51;;;20.18;61.11
34893;BME280;21106;52.240;20.902;2023-07-31T01:47:21;99483.45;;;20.14;61.22
34893;BME280;21106;52.240;20.902;2023-07-31T01:52:32;99487.09;;;20.11;61.18
34893;BME280;21106;52.240;20.902;2023-07-31T01:58:13;99493.75;;;20.07;61.58
34893;BME280;21106;52.240;20.902;2023-07-31T02:03:55;99491.89;;;20.00;61.67
34893;BME280;21106;52.240;20.902;2023-07-31T02:10:14;99491.69;;;19.93;61.73
34893;BME280;21106;52.240;20.902;2023-07-31T02:16:35;99495.08;;;19.90;61.94
34893;BME280;21106;52.240;20.902;2023-07-31T02:23:04;99512.48;;;19.86;62.06
34893;BME280;21106;52.240;20.902;2023-07-31T02:29:50;99510.34;;;19.76;62.49
34893;BME280;21106;52.240;20.902;2023-07-31T02:36:16;99509.71;;;19.70;62.80
34893;BME280;21106;52.240;20.902;2023-07-31T02:41:47;99521.98;;;19.67;62.96
34893;BME280;21106;52.240;20.902;2023-07-31T02:48:35;99520.55;;;19.63;63.19
34893;BME280;21106;52.240;20.902;2023-07-31T02:55:21;99508.95;;;19.61;63.14
34893;BME280;21106;52.240;20.902;2023-07-31T03:01:48;99513.84;;;19.64;63.57
34893;BME280;21106;52.240;20.902;2023-07-31T03:08:34;99514.27;;;19.67;63.54
34893;BME280;21106;52.240;20.902;2023-07-31T03:15:00;99512.45;;;19.68;63.56
34893;BME280;21106;52.240;20.902;2023-07-31T03:21:47;99522.08;;;19.69;63.65
34893;BME280;21106;52.240;20.902;2023-07-31T03:28:33;99526.98;;;19.74;63.51
34893;BME280;21106;52.240;20.902;2023-07-31T03:35:19;99532.94;;;19.77;63.58
34893;BME280;21106;52.240;20.902;2023-07-31T03:41:48;99539.45;;;19.78;63.66
34893;BME280;21106;52.240;20.902;2023-07-31T03:48:15;99546.48;;;19.81;63.81
34893;BME280;21106;52.240;20.902;2023-07-31T03:54:25;99551.05;;;19.80;63.88
34893;BME280;21106;52.240;20.902;2023-07-31T04:00:12;99557.85;;;19.80;63.95
34893;BME280;21106;52.240;20.902;2023-07-31T04:05:42;99558.78;;;19.79;64.06
34893;BME280;21106;52.240;20.902;2023-07-31T04:23:01;99575.90;;;19.84;63.97
34893;BME280;21106;52.240;20.902;2023-07-31T04:28:07;99578.13;;;19.85;64.19
34893;BME280;21106;52.240;20.902;2023-07-31T04:33:15;99577.17;;;19.87;63.92
34893;BME280;21106;52.240;20.902;2023-07-31T04:38:26;99581.93;;;19.87;64.16
34893;BME280;21106;52.240;20.902;2023-07-31T04:43:33;99585.27;;;19.89;64.03
34893;BME280;21106;52.240;20.902;2023-07-31T04:48:39;99582.09;;;19.93;63.92
34893;BME280;21106;52.240;20.902;2023-07-31T04:53:53;99582.98;;;19.97;64.10
34893;BME280;21106;52.240;20.902;2023-07-31T04:58:59;99582.41;;;20.00;64.00
34893;BME280;21106;52.240;20.902;2023-07-31T05:04:05;99581.65;;;20.04;63.86
34893;BME280;21106;52.240;20.902;2023-07-31T05:09:11;99591.13;;;20.08;63.96
34893;BME280;21106;52.240;20.902;2023-07-31T05:14:18;99594.31;;;20.07;63.79
34893;BME280;21106;52.240;20.902;2023-07-31T05:19:24;99598.88;;;20.07;63.67
34893;BME280;21106;52.240;20.902;2023-07-31T05:24:30;99597.55;;;20.06;63.76
34893;BME280;21106;52.240;20.902;2023-07-31T05:29:46;99598.50;;;20.00;63.67
34893;BME280;21106;52.240;20.902;2023-07-31T05:35:21;99606.39;;;19.98;63.76
34893;BME280;21106;52.240;20.902;2023-07-31T05:41:14;99612.19;;;20.01;63.50
34893;BME280;21106;52.240;20.902;2023-07-31T05:47:15;99618.83;;;20.07;63.49
34893;BME280;21106;52.240;20.902;2023-07-31T05:52:21;99620.12;;;20.08;63.27
34893;BME280;21106;52.240;20.902;2023-07-31T05:57:28;99632.83;;;20.10;63.09
34893;BME280;21106;52.240;20.902;2023-07-31T06:02:34;99631.05;;;20.13;63.06
34893;BME280;21106;52.240;20.902;2023-07-31T06:07:42;99634.75;;;20.13;62.99
34893;BME280;21106;52.240;20.902;2023-07-31T06:12:48;99642.41;;;20.13;62.59
34893;BME280;21106;52.240;20.902;2023-07-31T06:17:55;99648.93;;;20.16;62.64
34893;BME280;21106;52.240;20.902;2023-07-31T06:23:02;99644.66;;;20.17;62.51
34893;BME280;21106;52.240;20.902;2023-07-31T06:28:09;99648.24;;;20.16;62.76
34893;BME280;21106;52.240;20.902;2023-07-31T06:33:16;99639.95;;;20.16;62.85
34893;BME280;21106;52.240;20.902;2023-07-31T06:38:25;99639.27;;;20.17;62.83
34893;BME280;21106;52.240;20.902;2023-07-31T06:43:31;99643.10;;;20.14;62.90
34893;BME280;21106;52.240;20.902;2023-07-31T06:48:37;99648.16;;;20.15;62.79
34893;BME280;21106;52.240;20.902;2023-07-31T06:53:44;99649.64;;;20.17;62.95
34893;BME280;21106;52.240;20.902;2023-07-31T06:58:50;99652.46;;;20.22;62.71
34893;BME280;21106;52.240;20.902;2023-07-31T07:04:00;99656.03;;;20.23;62.68
34893;BME280;21106;52.240;20.902;2023-07-31T07:09:21;99652.80;;;20.29;62.89
34893;BME280;21106;52.240;20.902;2023-07-31T07:14:31;99651.65;;;20.40;62.78
34893;BME280;21106;52.240;20.902;2023-07-31T07:19:40;99648.98;;;20.59;62.78
34893;BME280;21106;52.240;20.902;2023-07-31T07:24:53;99648.86;;;20.95;62.52
34893;BME280;21106;52.240;20.902;2023-07-31T07:29:59;99649.79;;;21.30;62.06
34893;BME280;21106;52.240;20.902;2023-07-31T07:35:06;99645.86;;;21.61;60.94
34893;BME280;21106;52.240;20.902;2023-07-31T07:40:13;99641.66;;;21.85;60.14
34893;BME280;21106;52.240;20.902;2023-07-31T07:45:19;99639.40;;;22.07;59.81
34893;BME280;21106;52.240;20.902;2023-07-31T07:50:26;99642.09;;;22.33;58.72
34893;BME280;21106;52.240;20.902;2023-07-31T07:55:32;99646.24;;;22.43;58.06
34893;BME280;21106;52.240;20.902;2023-07-31T08:00:39;99654.23;;;22.51;57.55
34893;BME280;21106;52.240;20.902;2023-07-31T08:05:49;99651.23;;;22.67;57.18
34893;BME280;21106;52.240;20.902;2023-07-31T08:10:55;99652.84;;;22.85;56.82
34893;BME280;21106;52.240;20.902;2023-07-31T08:16:04;99635.61;;;23.08;56.17
34893;BME280;21106;52.240;20.902;2023-07-31T08:21:10;99634.10;;;23.42;55.95
34893;BME280;21106;52.240;20.902;2023-07-31T08:26:18;99639.23;;;23.82;54.94
34893;BME280;21106;52.240;20.902;2023-07-31T08:31:24;99636.10;;;24.16;53.45
34893;BME280;21106;52.240;20.902;2023-07-31T08:36:30;99641.25;;;24.43;52.58
34893;BME280;21106;52.240;20.902;2023-07-31T08:41:39;99640.77;;;24.64;51.45
34893;BME280;21106;52.240;20.902;2023-07-31T08:46:46;99639.33;;;24.86;50.73
34893;BME280;21106;52.240;20.902;2023-07-31T08:51:53;99635.86;;;25.03;48.91
34893;BME280;21106;52.240;20.902;2023-07-31T08:57:00;99643.59;;;25.16;49.04
34893;BME280;21106;52.240;20.902;2023-07-31T09:02:08;99645.11;;;25.25;47.98
34893;BME280;21106;52.240;20.902;2023-07-31T09:07:16;99643.25;;;25.32;47.59
34893;BME280;21106;52.240;20.902;2023-07-31T09:12:22;99647.00;;;25.33;46.34
34893;BME280;21106;52.240;20.902;2023-07-31T09:17:34;99645.66;;;25.36;46.77
34893;BME280;21106;52.240;20.902;2023-07-31T09:22:41;99644.26;;;25.37;46.44
34893;BME280;21106;52.240;20.902;2023-07-31T09:28:04;99643.02;;;25.34;46.13
34893;BME280;21106;52.240;20.902;2023-07-31T09:33:22;99638.55;;;25.32;46.37
34893;BME280;21106;52.240;20.902;2023-07-31T09:38:32;99636.46;;;25.31;45.94
34893;BME280;21106;52.240;20.902;2023-07-31T09:43:38;99638.25;;;25.30;46.05
34893;BME280;21106;52.240;20.902;2023-07-31T09:48:48;99640.27;;;25.31;45.41
34893;BME280;21106;52.240;20.902;2023-07-31T09:54:00;99639.06;;;25.33;46.01
34893;BME280;21106;52.240;20.902;2023-07-31T09:59:07;99633.95;;;25.38;44.55
34893;BME280;21106;52.240;20.902;2023-07-31T10:04:18;99634.54;;;25.37;44.18
34893;BME280;21106;52.240;20.902;2023-07-31T10:09:31;99634.88;;;25.39;44.07
34893;BME280;21106;52.240;20.902;2023-07-31T10:14:38;99632.69;;;25.40;43.43
34893;BME280;21106;52.240;20.902;2023-07-31T10:19:45;99622.55;;;25.46;43.83
34893;BME280;21106;52.240;20.902;2023-07-31T10:24:58;99621.40;;;25.49;43.23
34893;BME280;21106;52.240;20.902;2023-07-31T10:30:06;99624.52;;;25.52;42.16
34893;BME280;21106;52.240;20.902;2023-07-31T10:35:15;99617.20;;;25.53;41.50
34893;BME280;21106;52.240;20.902;2023-07-31T10:40:28;99624.35;;;25.52;41.53
34893;BME280;21106;52.240;20.902;2023-07-31T10:45:38;99627.00;;;25.51;40.97
34893;BME280;21106;52.240;20.902;2023-07-31T10:50:55;99622.80;;;25.52;40.54
34893;BME280;21106;52.240;20.902;2023-07-31T10:56:04;99619.05;;;25.47;40.00
34893;BME280;21106;52.240;20.902;2023-07-31T11:01:12;99624.50;;;25.51;40.79
34893;BME280;21106;52.240;20.902;2023-07-31T11:06:23;99621.45;;;25.50;40.07
34893;BME280;21106;52.240;20.902;2023-07-31T11:11:32;99618.51;;;25.44;40.40
34893;BME280;21106;52.240;20.902;2023-07-31T11:16:50;99618.52;;;25.51;40.79
34893;BME280;21106;52.240;20.902;2023-07-31T11:21:58;99615.39;;;25.57;40.46
34893;BME280;21106;52.240;20.902;2023-07-31T11:27:07;99614.88;;;25.58;39.87
34893;BME280;21106;52.240;20.902;2023-07-31T11:32:17;99614.91;;;25.56;39.84
34893;BME280;21106;52.240;20.902;2023-07-31T11:37:23;99609.95;;;25.53;38.91
34893;BME280;21106;52.240;20.902;2023-07-31T11:42:29;99610.86;;;25.50;38.71
34893;BME280;21106;52.240;20.902;2023-07-31T11:47:37;99612.84;;;25.50;38.93
34893;BME280;21106;52.240;20.902;2023-07-31T11:52:44;99607.65;;;25.50;38.68
34893;BME280;21106;52.240;20.902;2023-07-31T11:57:52;99606.17;;;25.44;38.89
34893;BME280;21106;52.240;20.902;2023-07-31T12:03:00;99605.13;;;25.40;38.87
34893;BME280;21106;52.240;20.902;2023-07-31T12:08:12;99605.06;;;25.34;39.26
34893;BME280;21106;52.240;20.902;2023-07-31T12:13:26;99600.19;;;25.35;39.76
34893;BME280;21106;52.240;20.902;2023-07-31T12:18:37;99600.09;;;25.37;39.57
34893;BME280;21106;52.240;20.902;2023-07-31T12:23:44;99595.98;;;25.35;39.73
34893;BME280;21106;52.240;20.902;2023-07-31T12:28:50;99592.23;;;25.30;39.82
34893;BME280;21106;52.240;20.902;2023-07-31T12:33:57;99583.67;;;25.29;39.90
34893;BME280;21106;52.240;20.902;2023-07-31T12:39:03;99577.45;;;25.21;40.00
34893;BME280;21106;52.240;20.902;2023-07-31T12:44:10;99570.23;;;25.23;40.29
34893;BME280;21106;52.240;20.902;2023-07-31T12:49:16;99563.30;;;25.20;40.42
34893;BME280;21106;52.240;20.902;2023-07-31T12:54:22;99552.39;;;25.18;40.73
34893;BME280;21106;52.240;20.902;2023-07-31T12:59:28;99551.30;;;25.20;40.56
34893;BME280;21106;52.240;20.902;2023-07-31T13:04:35;99543.59;;;25.15;39.66
34893;BME280;21106;52.240;20.902;2023-07-31T13:09:41;99542.17;;;25.08;39.97
34893;BME280;21106;52.240;20.902;2023-07-31T13:14:47;99541.84;;;25.07;39.69
34893;BME280;21106;52.240;20.902;2023-07-31T13:19:54;99534.77;;;25.07;39.58
34893;BME280;21106;52.240;20.902;2023-07-31T13:25:00;99531.34;;;25.09;38.86
34893;BME280;21106;52.240;20.902;2023-07-31T13:30:07;99526.42;;;25.07;38.42
34893;BME280;21106;52.240;20.902;2023-07-31T13:35:13;99530.30;;;25.02;37.98
34893;BME280;21106;52.240;20.902;2023-07-31T13:40:19;99518.27;;;24.96;37.34
34893;BME280;21106;52.240;20.902;2023-07-31T13:45:25;99521.70;;;24.97;37.83
34893;BME280;21106;52.240;20.902;2023-07-31T13:50:32;99516.02;;;25.01;37.81
34893;BME280;21106;52.240;20.902;2023-07-31T13:55:38;99515.61;;;24.96;37.39
34893;BME280;21106;52.240;20.902;2023-07-31T14:00:44;99514.83;;;24.95;37.70
34893;BME280;21106;52.240;20.902;2023-07-31T14:05:52;99507.38;;;24.96;37.48
34893;BME280;21106;52.240;20.902;2023-07-31T14:10:58;99509.91;;;24.93;37.92
34893;BME280;21106;52.240;20.902;2023-07-31T14:16:04;99501.36;;;24.93;37.98
34893;BME280;21106;52.240;20.902;2023-07-31T14:21:10;99500.01;;;24.92;38.11
34893;BME280;21106;52.240;20.902;2023-07-31T14:26:16;99498.59;;;24.91;38.58
34893;BME280;21106;52.240;20.902;2023-07-31T14:31:23;99491.95;;;24.94;38.69
34893;BME280;21106;52.240;20.902;2023-07-31T14:36:29;99494.98;;;24.98;38.78
34893;BME280;21106;52.240;20.902;2023-07-31T14:41:35;99486.59;;;25.02;38.83
34893;BME280;21106;52.240;20.902;2023-07-31T14:46:41;99484.11;;;25.07;38.91
34893;BME280;21106;52.240;20.902;2023-07-31T14:51:48;99475.66;;;25.15;39.01
34893;BME280;21106;52.240;20.902;2023-07-31T14:56:54;99474.89;;;25.18;38.87
34893;BME280;21106;52.240;20.902;2023-07-31T15:02:00;99473.31;;;25.19;38.94
34893;BME280;21106;52.240;20.902;2023-07-31T15:07:07;99478.90;;;25.17;39.06
34893;BME280;21106;52.240;20.902;2023-07-31T15:12:13;99471.84;;;25.13;39.07
34893;BME280;21106;52.240;20.902;2023-07-31T15:17:19;99472.45;;;25.13;39.50
34893;BME280;21106;52.240;20.902;2023-07-31T15:22:26;99467.95;;;25.13;39.57
34893;BME280;21106;52.240;20.902;2023-07-31T15:27:32;99462.71;;;25.11;39.72
34893;BME280;21106;52.240;20.902;2023-07-31T15:32:38;99460.89;;;25.10;39.87
34893;BME280;21106;52.240;20.902;2023-07-31T15:37:44;99456.14;;;25.06;39.95
34893;BME280;21106;52.240;20.902;2023-07-31T15:42:51;99447.97;;;25.08;40.10
34893;BME280;21106;52.240;20.902;2023-07-31T15:47:57;99448.30;;;25.09;39.94
34893;BME280;21106;52.240;20.902;2023-07-31T15:53:03;99441.91;;;25.10;39.95
34893;BME280;21106;52.240;20.902;2023-07-31T15:58:09;99440.95;;;25.09;40.09
34893;BME280;21106;52.240;20.902;2023-07-31T16:03:16;99438.69;;;25.09;40.23
34893;BME280;21106;52.240;20.902;2023-07-31T16:08:22;99434.58;;;25.09;40.22
34893;BME280;21106;52.240;20.902;2023-07-31T16:13:28;99428.34;;;25.06;40.40
34893;BME280;21106;52.240;20.902;2023-07-31T16:18:34;99424.67;;;25.07;40.58
34893;BME280;21106;52.240;20.902;2023-07-31T16:23:41;99418.76;;;25.07;40.69
34893;BME280;21106;52.240;20.902;2023-07-31T16:29:18;99417.30;;;25.07;40.90
34893;BME280;21106;52.240;20.902;2023-07-31T16:34:26;99425.20;;;25.09;41.05
34893;BME280;21106;52.240;20.902;2023-07-31T16:39:36;99421.47;;;25.09;41.11
34893;BME280;21106;52.240;20.902;2023-07-31T16:44:43;99426.29;;;25.06;41.37
34893;BME280;21106;52.240;20.902;2023-07-31T16:49:49;99423.15;;;25.06;41.65
34893;BME280;21106;52.240;20.902;2023-07-31T16:54:56;99418.79;;;25.05;41.69
34893;BME280;21106;52.240;20.902;2023-07-31T17:00:02;99421.73;;;25.01;41.76
34893;BME280;21106;52.240;20.902;2023-07-31T17:05:08;99423.73;;;24.95;41.93
34893;BME280;21106;52.240;20.902;2023-07-31T17:10:15;99421.02;;;24.89;42.12
34893;BME280;21106;52.240;20.902;2023-07-31T17:15:22;99421.07;;;24.85;42.27
34893;BME280;21106;52.240;20.902;2023-07-31T17:20:30;99427.95;;;24.81;42.32
34893;BME280;21106;52.240;20.902;2023-07-31T17:25:40;99435.38;;;24.75;42.42
34893;BME280;21106;52.240;20.902;2023-07-31T17:30:48;99437.07;;;24.74;42.55
34893;BME280;21106;52.240;20.902;2023-07-31T17:35:54;99441.31;;;24.73;42.48
34893;BME280;21106;52.240;20.902;2023-07-31T17:41:01;99449.78;;;24.70;42.64
34893;BME280;21106;52.240;20.902;2023-07-31T17:46:18;99454.64;;;24.57;42.93
34893;BME280;21106;52.240;20.902;2023-07-31T17:51:36;99473.96;;;24.45;43.66
34893;BME280;21106;52.240;20.902;2023-07-31T17:56:42;99466.84;;;24.38;44.51
34893;BME280;21106;52.240;20.902;2023-07-31T18:01:48;99469.60;;;24.30;45.46
34893;BME280;21106;52.240;20.902;2023-07-31T18:06:55;99475.60;;;24.24;46.14
34893;BME280;21106;52.240;20.902;2023-07-31T18:12:05;99477.23;;;24.19;46.59
34893;BME280;21106;52.240;20.902;2023-07-31T18:17:25;99474.39;;;24.14;46.60
34893;BME280;21106;52.240;20.902;2023-07-31T18:22:35;99478.59;;;24.12;46.57
34893;BME280;21106;52.240;20.902;2023-07-31T18:27:41;99469.89;;;24.05;46.67
34893;BME280;21106;52.240;20.902;2023-07-31T18:32:49;99466.59;;;24.00;46.51
34893;BME280;21106;52.240;20.902;2023-07-31T18:37:55;99469.11;;;23.94;46.71
34893;BME280;21106;52.240;20.902;2023-07-31T18:43:01;99466.63;;;23.85;46.76
34893;BME280;21106;52.240;20.902;2023-07-31T18:48:08;99465.13;;;23.77;46.98
34893;BME280;21106;52.240;20.902;2023-07-31T18:53:14;99470.17;;;23.74;47.18
34893;BME280;21106;52.240;20.902;2023-07-31T18:58:20;99471.11;;;23.66;47.25
34893;BME280;21106;52.240;20.902;2023-07-31T19:03:26;99474.45;;;23.59;47.43
34893;BME280;21106;52.240;20.902;2023-07-31T19:08:33;99474.34;;;23.48;47.59
34893;BME280;21106;52.240;20.902;2023-07-31T19:13:40;99475.09;;;23.39;47.95
34893;BME280;21106;52.240;20.902;2023-07-31T19:18:46;99468.34;;;23.30;48.40
34893;BME280;21106;52.240;20.902;2023-07-31T19:23:55;99464.05;;;23.24;48.59
34893;BME280;21106;52.240;20.902;2023-07-31T19:29:02;99461.52;;;23.18;48.80
34893;BME280;21106;52.240;20.902;2023-07-31T19:34:11;99467.10;;;23.11;49.04
34893;BME280;21106;52.240;20.902;2023-07-31T19:39:19;99466.09;;;23.04;49.21
34893;BME280;21106;52.240;20.902;2023-07-31T19:44:25;99462.27;;;22.97;49.33
34893;BME280;21106;52.240;20.902;2023-07-31T19:49:32;99467.07;;;22.91;49.74
34893;BME280;21106;52.240;20.902;2023-07-31T19:54:38;99463.57;;;22.84;49.97
34893;BME280;21106;52.240;20.902;2023-07-31T19:59:44;99461.76;;;22.80;50.28
34893;BME280;21106;52.240;20.902;2023-07-31T20:04:50;99463.92;;;22.78;50.39
34893;BME280;21106;52.240;20.902;2023-07-31T20:09:57;99461.50;;;22.77;50.48
34893;BME280;21106;52.240;20.902;2023-07-31T20:15:04;99458.67;;;22.75;50.70
34893;BME280;21106;52.240;20.902;2023-07-31T20:20:11;99459.17;;;22.74;50.74
34893;BME280;21106;52.240;20.902;2023-07-31T20:25:17;99444.95;;;22.72;50.79
34893;BME280;21106;52.240;20.902;2023-07-31T20:30:24;99442.25;;;22.67;51.04
34893;BME280;21106;52.240;20.902;2023-07-31T20:35:30;99437.00;;;22.58;51.59
34893;BME280;21106;52.240;20.902;2023-07-31T20:40:37;99432.65;;;22.51;51.72
34893;BME280;21106;52.240;20.902;2023-07-31T20:45:43;99419.10;;;22.45;52.16
34893;BME280;21106;52.240;20.902;2023-07-31T20:50:49;99413.55;;;22.41;52.34
34893;BME280;21106;52.240;20.902;2023-07-31T20:55:56;99401.98;;;22.35;52.39
34893;BME280;21106;52.240;20.902;2023-07-31T21:01:02;99397.41;;;22.29;52.63
34893;BME280;21106;52.240;20.902;2023-07-31T21:06:08;99390.91;;;22.25;52.62
34893;BME280;21106;52.240;20.902;2023-07-31T21:11:14;99387.84;;;22.26;52.83
34893;BME280;21106;52.240;20.902;2023-07-31T21:16:20;99380.19;;;22.26;52.71
34893;BME280;21106;52.240;20.902;2023-07-31T21:21:27;99373.94;;;22.20;52.96
34893;BME280;21106;52.240;20.902;2023-07-31T21:26:33;99371.36;;;22.17;52.83
34893;BME280;21106;52.240;20.902;2023-07-31T21:31:39;99367.59;;;22.14;53.03
34893;BME280;21106;52.240;20.902;2023-07-31T21:36:46;99368.43;;;22.12;52.86
34893;BME280;21106;52.240;20.902;2023-07-31T21:41:52;99358.02;;;22.09;52.93
34893;BME280;21106;52.240;20.902;2023-07-31T21:46:58;99352.10;;;22.06;53.18
34893;BME280;21106;52.240;20.902;2023-07-31T21:52:05;99353.11;;;22.04;52.96
34893;BME280;21106;52.240;20.902;2023-07-31T21:57:11;99344.11;;;22.00;53.05
34893;BME280;21106;52.240;20.902;2023-07-31T22:02:17;99335.52;;;21.96;53.03
34893;BME280;21106;52.240;20.902;2023-07-31T22:07:23;99330.54;;;21.91;53.08
34893;BME280;21106;52.240;20.902;2023-07-31T22:12:30;99325.15;;;21.87;53.21
34893;BME280;21106;52.240;20.902;2023-07-31T22:17:36;99326.45;;;21.85;53.23
34893;BME280;21106;52.240;20.902;2023-07-31T22:22:43;99318.48;;;21.83;52.95
34893;BME280;21106;52.240;20.902;2023-07-31T22:27:49;99320.25;;;21.82;53.14
34893;BME280;21106;52.240;20.902;2023-07-31T22:32:56;99319.77;;;21.82;52.85
34893;BME280;21106;52.240;20.902;2023-07-31T22:38:02;99317.39;;;21.80;53.00
34893;BME280;21106;52.240;20.902;2023-07-31T22:43:08;99320.02;;;21.77;53.12
34893;BME280;21106;52.240;20.902;2023-07-31T22:48:15;99317.71;;;21.76;53.26
34893;BME280;21106;52.240;20.902;2023-07-31T22:53:21;99306.02;;;21.74;53.06
34893;BME280;21106;52.240;20.902;2023-07-31T22:58:28;99311.01;;;21.73;52.96
34893;BME280;21106;52.240;20.902;2023-07-31T23:03:38;99308.38;;;21.71;52.86
34893;BME280;21106;52.240;20.902;2023-07-31T23:08:44;99304.86;;;21.70;52.87
34893;BME280;21106;52.240;20.902;2023-07-31T23:13:50;99295.45;;;21.68;52.83
34893;BME280;21106;52.240;20.902;2023-07-31T23:18:57;99290.40;;;21.66;53.15
34893;BME280;21106;52.240;20.902;2023-07-31T23:24:03;99298.86;;;21.64;53.06
34893;BME280;21106;52.240;20.902;2023-07-31T23:29:09;99296.10;;;21.61;53.07
34893;BME280;21106;52.240;20.902;2023-07-31T23:34:15;99296.27;;;21.60;53.12
34893;BME280;21106;52.240;20.902;2023-07-31T23:39:22;99294.23;;;21.60;53.17
34893;BME280;21106;52.240;20.902;2023-07-31T23:44:28;99295.67;;;21.58;53.00
34893;BME280;21106;52.240;20.902;2023-07-31T23:49:34;99280.58;;;21.56;53.26
34893;BME280;21106;52.240;20.902;2023-07-31T23:54:41;99275.92;;;21.54;52.99
34893;BME280;21106;52.240;20.902;2023-07-31T23:59:47;99269.20;;;21.53;53.27
